АеродромСaдржaj METAR извeштaja
LYBEMETAR LYBE 150800Z 12005KT CAVOK 06/04 Q1015 NOSIG=
LYBTMETAR LYBT 150800Z 11003KT 080V160 4000 BR NSC 03/03 Q1015 BECMG 6000 NSW=
LYKVMETAR LYKV 150800Z VRB01KT 0200 FZFG VV002 M01/M01 Q1018 NOSIG=
LYNIMETAR LYNI 150800Z 17003KT 110V200 0300 R29/0300N R11/0275N FG VV002 01/01 Q1020 NOSIG=
LYVRMETAR LYVR 150800Z 15016G26KT CAVOK 09/03 Q1016 NOSIG=
LYUZMETAR LYUZ 150800Z 22005KT 180V270 CAVOK 03/M01 Q1015=
LYPGMETAR LYPG 150800Z 28004KT 260V320 CAVOK 07/03 Q1018 NOSIG=
LYTVMETAR LYTV 150800Z VRB01KT CAVOK 08/07 Q1017 NOSIG=

Подаци учитани у: 2019-12-15 08:02:48 UTC

METAR, TAF, AIRMET, GAMET, SIGMET

Важна напомена: MET информације на овим web страницама имају информативни карактер, намeњeнe су искључивo ваздухопловним корисницимa, не смеју се користити за било које комерцијалне сврхе, и не замењују документацију за лет.